sensor_id;sensor_type;location;lat;lon;timestamp;P1;durP1;ratioP1;P2;durP2;ratioP2
2522;SDS011;1272;53.332;9.860;2024-02-14T00:01:03;1.90;;;1.80;;
2522;SDS011;1272;53.332;9.860;2024-02-14T00:03:29;1.67;;;1.33;;
2522;SDS011;1272;53.332;9.860;2024-02-14T00:05:55;2.20;;;2.10;;
2522;SDS011;1272;53.332;9.860;2024-02-14T00:08:22;1.67;;;1.57;;
2522;SDS011;1272;53.332;9.860;2024-02-14T00:10:48;1.93;;;1.80;;
2522;SDS011;1272;53.332;9.860;2024-02-14T00:13:13;1.70;;;1.60;;
2522;SDS011;1272;53.332;9.860;2024-02-14T00:15:40;1.87;;;1.77;;
2522;SDS011;1272;53.332;9.860;2024-02-14T00:18:05;1.80;;;1.70;;
2522;SDS011;1272;53.332;9.860;2024-02-14T00:20:31;1.23;;;1.23;;
2522;SDS011;1272;53.332;9.860;2024-02-14T00:22:57;2.73;;;2.53;;
2522;SDS011;1272;53.332;9.860;2024-02-14T00:25:23;2.27;;;2.17;;
2522;SDS011;1272;53.332;9.860;2024-02-14T00:27:49;1.60;;;1.53;;
2522;SDS011;1272;53.332;9.860;2024-02-14T00:30:15;1.87;;;1.77;;
2522;SDS011;1272;53.332;9.860;2024-02-14T00:32:40;1.67;;;1.37;;
2522;SDS011;1272;53.332;9.860;2024-02-14T00:35:06;2.40;;;1.67;;
2522;SDS011;1272;53.332;9.860;2024-02-14T00:37:32;2.03;;;1.93;;
2522;SDS011;1272;53.332;9.860;2024-02-14T00:39:59;3.60;;;2.07;;
2522;SDS011;1272;53.332;9.860;2024-02-14T00:42:24;3.73;;;1.80;;
2522;SDS011;1272;53.332;9.860;2024-02-14T00:44:50;2.00;;;1.60;;
2522;SDS011;1272;53.332;9.860;2024-02-14T00:47:16;3.33;;;2.07;;
2522;SDS011;1272;53.332;9.860;2024-02-14T00:49:42;1.50;;;1.47;;
2522;SDS011;1272;53.332;9.860;2024-02-14T00:52:08;1.63;;;1.53;;
2522;SDS011;1272;53.332;9.860;2024-02-14T00:54:34;1.73;;;1.63;;
2522;SDS011;1272;53.332;9.860;2024-02-14T00:57:00;2.07;;;1.87;;
2522;SDS011;1272;53.332;9.860;2024-02-14T00:59:25;3.33;;;1.90;;
2522;SDS011;1272;53.332;9.860;2024-02-14T01:01:51;1.93;;;1.83;;
2522;SDS011;1272;53.332;9.860;2024-02-14T01:04:17;1.50;;;1.50;;
2522;SDS011;1272;53.332;9.860;2024-02-14T01:06:43;1.50;;;1.37;;
2522;SDS011;1272;53.332;9.860;2024-02-14T01:09:09;2.20;;;1.50;;
2522;SDS011;1272;53.332;9.860;2024-02-14T01:11:35;1.90;;;1.80;;
2522;SDS011;1272;53.332;9.860;2024-02-14T01:14:03;1.40;;;1.40;;
2522;SDS011;1272;53.332;9.860;2024-02-14T01:16:29;1.90;;;1.80;;
2522;SDS011;1272;53.332;9.860;2024-02-14T01:18:55;1.50;;;1.40;;
2522;SDS011;1272;53.332;9.860;2024-02-14T01:21:21;1.87;;;1.50;;
2522;SDS011;1272;53.332;9.860;2024-02-14T01:23:47;2.00;;;1.80;;
2522;SDS011;1272;53.332;9.860;2024-02-14T01:26:13;2.50;;;1.50;;
2522;SDS011;1272;53.332;9.860;2024-02-14T01:28:39;2.00;;;1.70;;
2522;SDS011;1272;53.332;9.860;2024-02-14T01:31:05;1.90;;;1.80;;
2522;SDS011;1272;53.332;9.860;2024-02-14T01:33:30;1.93;;;1.83;;
2522;SDS011;1272;53.332;9.860;2024-02-14T01:35:56;3.03;;;2.10;;
2522;SDS011;1272;53.332;9.860;2024-02-14T01:38:22;2.30;;;1.83;;
2522;SDS011;1272;53.332;9.860;2024-02-14T01:40:48;3.57;;;1.87;;
2522;SDS011;1272;53.332;9.860;2024-02-14T01:43:14;2.20;;;1.77;;
2522;SDS011;1272;53.332;9.860;2024-02-14T01:45:40;2.03;;;1.93;;
2522;SDS011;1272;53.332;9.860;2024-02-14T01:50:50;2.27;;;1.90;;
2522;SDS011;1272;53.332;9.860;2024-02-14T01:53:17;3.60;;;2.10;;
2522;SDS011;1272;53.332;9.860;2024-02-14T01:55:43;2.10;;;2.00;;
2522;SDS011;1272;53.332;9.860;2024-02-14T01:58:10;1.90;;;1.80;;
2522;SDS011;1272;53.332;9.860;2024-02-14T02:00:35;2.00;;;1.83;;
2522;SDS011;1272;53.332;9.860;2024-02-14T02:03:02;1.87;;;1.77;;
2522;SDS011;1272;53.332;9.860;2024-02-14T02:05:29;1.93;;;1.83;;
2522;SDS011;1272;53.332;9.860;2024-02-14T02:07:55;1.87;;;1.77;;
2522;SDS011;1272;53.332;9.860;2024-02-14T02:10:20;2.13;;;2.03;;
2522;SDS011;1272;53.332;9.860;2024-02-14T02:12:47;1.93;;;1.83;;
2522;SDS011;1272;53.332;9.860;2024-02-14T02:15:15;2.10;;;2.00;;
2522;SDS011;1272;53.332;9.860;2024-02-14T02:17:41;2.40;;;1.73;;
2522;SDS011;1272;53.332;9.860;2024-02-14T02:20:07;2.40;;;1.80;;
2522;SDS011;1272;53.332;9.860;2024-02-14T02:22:34;2.27;;;2.07;;
2522;SDS011;1272;53.332;9.860;2024-02-14T02:25:02;2.13;;;1.77;;
2522;SDS011;1272;53.332;9.860;2024-02-14T02:27:32;2.10;;;2.00;;
2522;SDS011;1272;53.332;9.860;2024-02-14T02:30:00;1.80;;;1.70;;
2522;SDS011;1272;53.332;9.860;2024-02-14T02:32:26;2.10;;;1.97;;
2522;SDS011;1272;53.332;9.860;2024-02-14T02:34:52;4.30;;;2.50;;
2522;SDS011;1272;53.332;9.860;2024-02-14T02:37:18;2.33;;;2.23;;
2522;SDS011;1272;53.332;9.860;2024-02-14T02:39:44;2.63;;;1.80;;
2522;SDS011;1272;53.332;9.860;2024-02-14T02:42:09;2.47;;;2.27;;
2522;SDS011;1272;53.332;9.860;2024-02-14T02:44:37;2.63;;;2.43;;
2522;SDS011;1272;53.332;9.860;2024-02-14T02:47:04;2.03;;;1.93;;
2522;SDS011;1272;53.332;9.860;2024-02-14T02:49:29;2.30;;;2.20;;
2522;SDS011;1272;53.332;9.860;2024-02-14T02:51:55;1.97;;;1.87;;
2522;SDS011;1272;53.332;9.860;2024-02-14T02:54:21;2.50;;;2.40;;
2522;SDS011;1272;53.332;9.860;2024-02-14T02:56:49;3.37;;;2.57;;
2522;SDS011;1272;53.332;9.860;2024-02-14T02:59:14;1.87;;;1.77;;
2522;SDS011;1272;53.332;9.860;2024-02-14T03:01:41;1.93;;;1.83;;
2522;SDS011;1272;53.332;9.860;2024-02-14T03:04:09;1.97;;;1.87;;
2522;SDS011;1272;53.332;9.860;2024-02-14T03:06:35;2.33;;;2.20;;
2522;SDS011;1272;53.332;9.860;2024-02-14T03:09:01;1.97;;;1.53;;
2522;SDS011;1272;53.332;9.860;2024-02-14T03:11:27;2.70;;;2.50;;
2522;SDS011;1272;53.332;9.860;2024-02-14T03:13:53;2.73;;;1.80;;
2522;SDS011;1272;53.332;9.860;2024-02-14T03:16:19;2.50;;;2.30;;
2522;SDS011;1272;53.332;9.860;2024-02-14T03:18:44;2.37;;;2.07;;
2522;SDS011;1272;53.332;9.860;2024-02-14T03:21:10;2.67;;;2.47;;
2522;SDS011;1272;53.332;9.860;2024-02-14T03:23:37;2.33;;;1.90;;
2522;SDS011;1272;53.332;9.860;2024-02-14T03:26:02;2.40;;;1.80;;
2522;SDS011;1272;53.332;9.860;2024-02-14T03:28:32;2.33;;;2.20;;
2522;SDS011;1272;53.332;9.860;2024-02-14T03:30:58;2.13;;;2.03;;
2522;SDS011;1272;53.332;9.860;2024-02-14T03:33:24;2.10;;;2.00;;
2522;SDS011;1272;53.332;9.860;2024-02-14T03:35:49;3.23;;;2.43;;
2522;SDS011;1272;53.332;9.860;2024-02-14T03:38:33;2.00;;;1.90;;
2522;SDS011;1272;53.332;9.860;2024-02-14T03:41:00;2.23;;;2.13;;
2522;SDS011;1272;53.332;9.860;2024-02-14T03:43:25;2.90;;;2.70;;
2522;SDS011;1272;53.332;9.860;2024-02-14T03:45:51;1.93;;;1.83;;
2522;SDS011;1272;53.332;9.860;2024-02-14T03:48:17;2.00;;;1.90;;
2522;SDS011;1272;53.332;9.860;2024-02-14T03:50:43;2.47;;;1.90;;
2522;SDS011;1272;53.332;9.860;2024-02-14T03:53:08;1.97;;;1.87;;
2522;SDS011;1272;53.332;9.860;2024-02-14T03:55:39;2.20;;;2.10;;
2522;SDS011;1272;53.332;9.860;2024-02-14T03:58:05;2.40;;;2.20;;
2522;SDS011;1272;53.332;9.860;2024-02-14T04:00:33;2.13;;;2.03;;
2522;SDS011;1272;53.332;9.860;2024-02-14T04:03:00;2.40;;;2.30;;
2522;SDS011;1272;53.332;9.860;2024-02-14T04:05:27;2.40;;;2.27;;
2522;SDS011;1272;53.332;9.860;2024-02-14T04:07:54;2.20;;;2.10;;
2522;SDS011;1272;53.332;9.860;2024-02-14T04:10:20;1.90;;;1.80;;
2522;SDS011;1272;53.332;9.860;2024-02-14T04:12:47;3.53;;;2.73;;
2522;SDS011;1272;53.332;9.860;2024-02-14T04:15:13;2.53;;;2.30;;
2522;SDS011;1272;53.332;9.860;2024-02-14T04:17:41;2.50;;;1.97;;
2522;SDS011;1272;53.332;9.860;2024-02-14T04:20:07;2.43;;;2.23;;
2522;SDS011;1272;53.332;9.860;2024-02-14T04:22:33;2.67;;;2.47;;
2522;SDS011;1272;53.332;9.860;2024-02-14T04:24:59;3.13;;;2.30;;
2522;SDS011;1272;53.332;9.860;2024-02-14T04:27:25;2.73;;;2.53;;
2522;SDS011;1272;53.332;9.860;2024-02-14T04:29:52;3.20;;;2.23;;
2522;SDS011;1272;53.332;9.860;2024-02-14T04:32:18;3.03;;;2.70;;
2522;SDS011;1272;53.332;9.860;2024-02-14T04:34:44;2.73;;;2.53;;
2522;SDS011;1272;53.332;9.860;2024-02-14T04:37:10;2.63;;;2.40;;
2522;SDS011;1272;53.332;9.860;2024-02-14T04:39:38;2.73;;;2.33;;
2522;SDS011;1272;53.332;9.860;2024-02-14T04:42:05;3.20;;;2.90;;
2522;SDS011;1272;53.332;9.860;2024-02-14T04:44:31;2.33;;;2.23;;
2522;SDS011;1272;53.332;9.860;2024-02-14T04:46:58;3.10;;;2.87;;
2522;SDS011;1272;53.332;9.860;2024-02-14T04:49:24;3.00;;;2.70;;
2522;SDS011;1272;53.332;9.860;2024-02-14T04:51:53;2.33;;;2.20;;
2522;SDS011;1272;53.332;9.860;2024-02-14T04:54:19;2.37;;;2.27;;
2522;SDS011;1272;53.332;9.860;2024-02-14T04:56:45;3.43;;;2.83;;
2522;SDS011;1272;53.332;9.860;2024-02-14T04:59:11;2.60;;;2.40;;
2522;SDS011;1272;53.332;9.860;2024-02-14T05:01:37;2.40;;;2.30;;
2522;SDS011;1272;53.332;9.860;2024-02-14T05:04:05;2.50;;;2.30;;
2522;SDS011;1272;53.332;9.860;2024-02-14T05:06:33;2.80;;;2.60;;
2522;SDS011;1272;53.332;9.860;2024-02-14T05:08:59;3.10;;;2.90;;
2522;SDS011;1272;53.332;9.860;2024-02-14T05:11:25;2.70;;;2.50;;
2522;SDS011;1272;53.332;9.860;2024-02-14T05:13:50;2.80;;;2.60;;
2522;SDS011;1272;53.332;9.860;2024-02-14T05:16:19;2.60;;;2.10;;
2522;SDS011;1272;53.332;9.860;2024-02-14T05:18:45;2.20;;;2.10;;
2522;SDS011;1272;53.332;9.860;2024-02-14T05:21:11;3.20;;;3.00;;
2522;SDS011;1272;53.332;9.860;2024-02-14T05:23:37;2.30;;;2.10;;
2522;SDS011;1272;53.332;9.860;2024-02-14T05:26:03;2.70;;;2.60;;
2522;SDS011;1272;53.332;9.860;2024-02-14T05:28:29;2.37;;;2.27;;
2522;SDS011;1272;53.332;9.860;2024-02-14T05:30:56;2.40;;;2.30;;
2522;SDS011;1272;53.332;9.860;2024-02-14T05:33:22;2.73;;;2.53;;
2522;SDS011;1272;53.332;9.860;2024-02-14T05:35:48;2.00;;;1.90;;
2522;SDS011;1272;53.332;9.860;2024-02-14T05:38:15;3.30;;;2.07;;
2522;SDS011;1272;53.332;9.860;2024-02-14T05:40:41;2.93;;;2.60;;
2522;SDS011;1272;53.332;9.860;2024-02-14T05:43:09;2.80;;;2.60;;
2522;SDS011;1272;53.332;9.860;2024-02-14T05:45:35;2.37;;;2.23;;
2522;SDS011;1272;53.332;9.860;2024-02-14T05:48:01;2.73;;;2.53;;
2522;SDS011;1272;53.332;9.860;2024-02-14T05:50:27;2.67;;;2.47;;
2522;SDS011;1272;53.332;9.860;2024-02-14T05:52:53;2.93;;;2.53;;
2522;SDS011;1272;53.332;9.860;2024-02-14T05:55:19;2.13;;;2.03;;
2522;SDS011;1272;53.332;9.860;2024-02-14T05:57:44;2.30;;;2.20;;
2522;SDS011;1272;53.332;9.860;2024-02-14T06:00:10;2.57;;;2.37;;
2522;SDS011;1272;53.332;9.860;2024-02-14T06:02:37;2.20;;;1.97;;
2522;SDS011;1272;53.332;9.860;2024-02-14T06:05:05;3.10;;;2.90;;
2522;SDS011;1272;53.332;9.860;2024-02-14T06:07:35;2.53;;;2.33;;
2522;SDS011;1272;53.332;9.860;2024-02-14T06:10:04;3.27;;;2.80;;
2522;SDS011;1272;53.332;9.860;2024-02-14T06:12:31;2.90;;;2.60;;
2522;SDS011;1272;53.332;9.860;2024-02-14T06:14:57;2.30;;;2.20;;
2522;SDS011;1272;53.332;9.860;2024-02-14T06:17:23;3.30;;;2.37;;
2522;SDS011;1272;53.332;9.860;2024-02-14T06:19:49;4.10;;;2.67;;
2522;SDS011;1272;53.332;9.860;2024-02-14T06:22:15;3.43;;;3.13;;
2522;SDS011;1272;53.332;9.860;2024-02-14T06:24:41;3.13;;;2.77;;
2522;SDS011;1272;53.332;9.860;2024-02-14T06:27:06;3.30;;;3.00;;
2522;SDS011;1272;53.332;9.860;2024-02-14T06:29:32;2.90;;;2.70;;
2522;SDS011;1272;53.332;9.860;2024-02-14T06:31:58;2.90;;;2.70;;
2522;SDS011;1272;53.332;9.860;2024-02-14T06:34:24;3.90;;;2.90;;
2522;SDS011;1272;53.332;9.860;2024-02-14T06:36:51;4.43;;;2.50;;
2522;SDS011;1272;53.332;9.860;2024-02-14T06:39:16;2.13;;;2.03;;
2522;SDS011;1272;53.332;9.860;2024-02-14T06:41:42;4.27;;;2.30;;
2522;SDS011;1272;53.332;9.860;2024-02-14T06:44:10;3.53;;;2.70;;
2522;SDS011;1272;53.332;9.860;2024-02-14T06:46:36;2.93;;;2.67;;
2522;SDS011;1272;53.332;9.860;2024-02-14T06:49:03;3.20;;;3.00;;
2522;SDS011;1272;53.332;9.860;2024-02-14T06:51:28;3.00;;;2.80;;
2522;SDS011;1272;53.332;9.860;2024-02-14T06:53:55;3.20;;;2.90;;
2522;SDS011;1272;53.332;9.860;2024-02-14T06:56:21;2.70;;;2.50;;
2522;SDS011;1272;53.332;9.860;2024-02-14T06:58:47;5.07;;;2.97;;
2522;SDS011;1272;53.332;9.860;2024-02-14T07:01:17;3.37;;;3.17;;
2522;SDS011;1272;53.332;9.860;2024-02-14T07:03:47;3.20;;;2.93;;
2522;SDS011;1272;53.332;9.860;2024-02-14T07:06:13;3.87;;;3.03;;
2522;SDS011;1272;53.332;9.860;2024-02-14T07:08:41;3.17;;;2.97;;
2522;SDS011;1272;53.332;9.860;2024-02-14T07:11:07;3.03;;;2.83;;
2522;SDS011;1272;53.332;9.860;2024-02-14T07:13:33;3.37;;;3.07;;
2522;SDS011;1272;53.332;9.860;2024-02-14T07:15:59;2.87;;;2.60;;
2522;SDS011;1272;53.332;9.860;2024-02-14T07:18:25;2.77;;;2.57;;
2522;SDS011;1272;53.332;9.860;2024-02-14T07:20:51;3.10;;;2.90;;
2522;SDS011;1272;53.332;9.860;2024-02-14T07:23:18;3.00;;;2.80;;
2522;SDS011;1272;53.332;9.860;2024-02-14T07:25:44;2.70;;;2.50;;
2522;SDS011;1272;53.332;9.860;2024-02-14T07:28:10;3.10;;;2.90;;
2522;SDS011;1272;53.332;9.860;2024-02-14T07:30:36;2.90;;;2.70;;
2522;SDS011;1272;53.332;9.860;2024-02-14T07:33:02;2.97;;;2.80;;
2522;SDS011;1272;53.332;9.860;2024-02-14T07:35:27;2.77;;;2.60;;
2522;SDS011;1272;53.332;9.860;2024-02-14T07:37:54;2.83;;;2.63;;
2522;SDS011;1272;53.332;9.860;2024-02-14T07:40:20;3.70;;;3.40;;
2522;SDS011;1272;53.332;9.860;2024-02-14T07:42:46;2.57;;;2.47;;
2522;SDS011;1272;53.332;9.860;2024-02-14T07:45:12;2.90;;;2.70;;
2522;SDS011;1272;53.332;9.860;2024-02-14T07:47:38;2.93;;;2.70;;
2522;SDS011;1272;53.332;9.860;2024-02-14T07:50:05;2.00;;;1.90;;
2522;SDS011;1272;53.332;9.860;2024-02-14T07:52:32;3.23;;;3.00;;
2522;SDS011;1272;53.332;9.860;2024-02-14T07:54:57;3.30;;;3.00;;
2522;SDS011;1272;53.332;9.860;2024-02-14T07:57:23;2.37;;;2.27;;
2522;SDS011;1272;53.332;9.860;2024-02-14T07:59:50;3.37;;;3.13;;
2522;SDS011;1272;53.332;9.860;2024-02-14T08:02:17;3.40;;;3.10;;
2522;SDS011;1272;53.332;9.860;2024-02-14T08:04:42;4.43;;;4.07;;
2522;SDS011;1272;53.332;9.860;2024-02-14T08:07:09;4.50;;;3.57;;
2522;SDS011;1272;53.332;9.860;2024-02-14T08:09:35;5.30;;;4.37;;
2522;SDS011;1272;53.332;9.860;2024-02-14T08:12:01;4.50;;;4.10;;
2522;SDS011;1272;53.332;9.860;2024-02-14T08:14:26;5.57;;;4.77;;
2522;SDS011;1272;53.332;9.860;2024-02-14T08:16:52;4.37;;;3.97;;
2522;SDS011;1272;53.332;9.860;2024-02-14T08:19:18;3.27;;;3.07;;
2522;SDS011;1272;53.332;9.860;2024-02-14T08:21:44;4.20;;;2.90;;
2522;SDS011;1272;53.332;9.860;2024-02-14T08:24:10;3.30;;;2.90;;
2522;SDS011;1272;53.332;9.860;2024-02-14T08:26:36;2.50;;;2.40;;
2522;SDS011;1272;53.332;9.860;2024-02-14T08:29:02;2.53;;;2.33;;
2522;SDS011;1272;53.332;9.860;2024-02-14T08:31:28;2.70;;;2.50;;
2522;SDS011;1272;53.332;9.860;2024-02-14T08:33:54;2.60;;;2.40;;
2522;SDS011;1272;53.332;9.860;2024-02-14T08:36:20;3.07;;;2.87;;
2522;SDS011;1272;53.332;9.860;2024-02-14T08:38:45;3.17;;;2.97;;
2522;SDS011;1272;53.332;9.860;2024-02-14T08:41:11;2.10;;;2.00;;
2522;SDS011;1272;53.332;9.860;2024-02-14T08:43:37;2.77;;;2.57;;
2522;SDS011;1272;53.332;9.860;2024-02-14T08:46:03;2.40;;;2.30;;
2522;SDS011;1272;53.332;9.860;2024-02-14T08:48:35;2.50;;;2.37;;
2522;SDS011;1272;53.332;9.860;2024-02-14T08:51:01;2.47;;;2.37;;
2522;SDS011;1272;53.332;9.860;2024-02-14T08:53:28;2.90;;;2.70;;
2522;SDS011;1272;53.332;9.860;2024-02-14T08:55:54;2.87;;;2.67;;
2522;SDS011;1272;53.332;9.860;2024-02-14T08:58:20;3.10;;;2.37;;
2522;SDS011;1272;53.332;9.860;2024-02-14T09:00:47;2.80;;;2.60;;
2522;SDS011;1272;53.332;9.860;2024-02-14T09:03:13;2.23;;;2.13;;
2522;SDS011;1272;53.332;9.860;2024-02-14T09:05:39;2.37;;;2.20;;
2522;SDS011;1272;53.332;9.860;2024-02-14T09:08:05;2.20;;;2.10;;
2522;SDS011;1272;53.332;9.860;2024-02-14T09:10:31;2.23;;;2.13;;
2522;SDS011;1272;53.332;9.860;2024-02-14T09:12:56;3.00;;;2.80;;
2522;SDS011;1272;53.332;9.860;2024-02-14T09:15:22;3.37;;;3.00;;
2522;SDS011;1272;53.332;9.860;2024-02-14T09:17:48;4.23;;;3.40;;
2522;SDS011;1272;53.332;9.860;2024-02-14T09:20:14;3.03;;;2.50;;
2522;SDS011;1272;53.332;9.860;2024-02-14T09:22:40;3.53;;;3.23;;
2522;SDS011;1272;53.332;9.860;2024-02-14T09:25:07;4.53;;;2.97;;
2522;SDS011;1272;53.332;9.860;2024-02-14T09:27:34;3.80;;;2.80;;
2522;SDS011;1272;53.332;9.860;2024-02-14T09:30:00;2.60;;;2.40;;
2522;SDS011;1272;53.332;9.860;2024-02-14T09:32:30;2.83;;;2.73;;
2522;SDS011;1272;53.332;9.860;2024-02-14T09:34:56;2.47;;;2.33;;
2522;SDS011;1272;53.332;9.860;2024-02-14T09:37:23;2.73;;;2.53;;
2522;SDS011;1272;53.332;9.860;2024-02-14T09:39:49;2.87;;;2.67;;
2522;SDS011;1272;53.332;9.860;2024-02-14T09:42:16;2.47;;;2.37;;
2522;SDS011;1272;53.332;9.860;2024-02-14T09:44:45;2.20;;;2.10;;
2522;SDS011;1272;53.332;9.860;2024-02-14T09:47:11;2.00;;;1.90;;
2522;SDS011;1272;53.332;9.860;2024-02-14T09:49:38;2.47;;;2.37;;
2522;SDS011;1272;53.332;9.860;2024-02-14T09:52:05;3.57;;;3.27;;
2522;SDS011;1272;53.332;9.860;2024-02-14T09:54:31;2.50;;;2.30;;
2522;SDS011;1272;53.332;9.860;2024-02-14T09:57:01;2.13;;;2.03;;
2522;SDS011;1272;53.332;9.860;2024-02-14T09:59:27;2.73;;;2.53;;
2522;SDS011;1272;53.332;9.860;2024-02-14T10:01:56;2.47;;;2.27;;
2522;SDS011;1272;53.332;9.860;2024-02-14T10:04:22;2.93;;;2.73;;
2522;SDS011;1272;53.332;9.860;2024-02-14T10:06:50;2.83;;;2.63;;
2522;SDS011;1272;53.332;9.860;2024-02-14T10:09:22;3.57;;;3.37;;
2522;SDS011;1272;53.332;9.860;2024-02-14T10:11:48;4.07;;;3.23;;
2522;SDS011;1272;53.332;9.860;2024-02-14T10:14:14;3.37;;;3.07;;
2522;SDS011;1272;53.332;9.860;2024-02-14T10:16:41;3.37;;;3.17;;
2522;SDS011;1272;53.332;9.860;2024-02-14T10:19:16;3.33;;;3.13;;
2522;SDS011;1272;53.332;9.860;2024-02-14T10:21:55;2.67;;;2.57;;
2522;SDS011;1272;53.332;9.860;2024-02-14T10:24:23;3.60;;;3.13;;
2522;SDS011;1272;53.332;9.860;2024-02-14T10:26:50;3.20;;;2.90;;
2522;SDS011;1272;53.332;9.860;2024-02-14T10:29:16;4.13;;;3.73;;
2522;SDS011;1272;53.332;9.860;2024-02-14T10:31:42;3.40;;;3.10;;
2522;SDS011;1272;53.332;9.860;2024-02-14T10:34:08;3.73;;;3.40;;
2522;SDS011;1272;53.332;9.860;2024-02-14T10:36:35;3.93;;;3.57;;
2522;SDS011;1272;53.332;9.860;2024-02-14T10:39:01;3.80;;;3.50;;
2522;SDS011;1272;53.332;9.860;2024-02-14T10:41:29;3.93;;;3.53;;
2522;SDS011;1272;53.332;9.860;2024-02-14T10:44:01;3.80;;;3.50;;
2522;SDS011;1272;53.332;9.860;2024-02-14T10:46:28;3.13;;;2.83;;
2522;SDS011;1272;53.332;9.860;2024-02-14T10:48:58;4.20;;;3.80;;
2522;SDS011;1272;53.332;9.860;2024-02-14T10:51:36;3.30;;;3.00;;
2522;SDS011;1272;53.332;9.860;2024-02-14T10:54:04;3.60;;;3.30;;
2522;SDS011;1272;53.332;9.860;2024-02-14T10:56:35;4.77;;;4.00;;
2522;SDS011;1272;53.332;9.860;2024-02-14T10:59:06;3.30;;;3.00;;
2522;SDS011;1272;53.332;9.860;2024-02-14T11:01:33;3.43;;;3.13;;
2522;SDS011;1272;53.332;9.860;2024-02-14T11:03:59;3.53;;;3.30;;
2522;SDS011;1272;53.332;9.860;2024-02-14T11:06:25;4.60;;;4.20;;
2522;SDS011;1272;53.332;9.860;2024-02-14T11:09:03;3.13;;;2.83;;
2522;SDS011;1272;53.332;9.860;2024-02-14T11:11:35;3.93;;;3.53;;
2522;SDS011;1272;53.332;9.860;2024-02-14T11:14:02;3.70;;;3.40;;
2522;SDS011;1272;53.332;9.860;2024-02-14T11:16:30;4.03;;;3.40;;
2522;SDS011;1272;53.332;9.860;2024-02-14T11:19:07;3.20;;;3.00;;
2522;SDS011;1272;53.332;9.860;2024-02-14T11:21:41;3.73;;;3.37;;
2522;SDS011;1272;53.332;9.860;2024-02-14T11:24:11;6.00;;;4.13;;
2522;SDS011;1272;53.332;9.860;2024-02-14T11:26:45;3.87;;;3.60;;
2522;SDS011;1272;53.332;9.860;2024-02-14T11:29:15;4.27;;;3.87;;
2522;SDS011;1272;53.332;9.860;2024-02-14T11:31:41;4.50;;;4.00;;
2522;SDS011;1272;53.332;9.860;2024-02-14T11:34:08;5.07;;;4.60;;
2522;SDS011;1272;53.332;9.860;2024-02-14T11:36:36;5.23;;;4.33;;
2522;SDS011;1272;53.332;9.860;2024-02-14T11:39:03;5.30;;;4.80;;
2522;SDS011;1272;53.332;9.860;2024-02-14T11:41:30;5.33;;;4.83;;
2522;SDS011;1272;53.332;9.860;2024-02-14T11:44:00;5.83;;;4.63;;
2522;SDS011;1272;53.332;9.860;2024-02-14T11:46:29;11.63;;;5.80;;
2522;SDS011;1272;53.332;9.860;2024-02-14T11:48:55;5.73;;;5.13;;
2522;SDS011;1272;53.332;9.860;2024-02-14T11:51:22;8.10;;;5.97;;
2522;SDS011;1272;53.332;9.860;2024-02-14T11:53:48;8.90;;;6.40;;
2522;SDS011;1272;53.332;9.860;2024-02-14T11:56:14;8.53;;;6.30;;
2522;SDS011;1272;53.332;9.860;2024-02-14T11:58:40;6.50;;;5.73;;
2522;SDS011;1272;53.332;9.860;2024-02-14T12:01:07;6.40;;;5.43;;
2522;SDS011;1272;53.332;9.860;2024-02-14T12:03:34;11.20;;;6.10;;
2522;SDS011;1272;53.332;9.860;2024-02-14T12:06:00;10.30;;;7.27;;
2522;SDS011;1272;53.332;9.860;2024-02-14T12:08:28;8.37;;;5.90;;
2522;SDS011;1272;53.332;9.860;2024-02-14T12:10:55;9.10;;;6.10;;
2522;SDS011;1272;53.332;9.860;2024-02-14T12:13:21;11.40;;;7.47;;
2522;SDS011;1272;53.332;9.860;2024-02-14T12:15:47;8.90;;;6.23;;
2522;SDS011;1272;53.332;9.860;2024-02-14T12:18:15;9.97;;;7.73;;
2522;SDS011;1272;53.332;9.860;2024-02-14T12:20:43;8.60;;;6.93;;
2522;SDS011;1272;53.332;9.860;2024-02-14T12:23:13;8.43;;;7.07;;
2522;SDS011;1272;53.332;9.860;2024-02-14T12:25:43;8.37;;;6.80;;
2522;SDS011;1272;53.332;9.860;2024-02-14T12:28:15;9.80;;;6.40;;
2522;SDS011;1272;53.332;9.860;2024-02-14T12:30:45;8.30;;;6.47;;
2522;SDS011;1272;53.332;9.860;2024-02-14T12:33:13;7.67;;;5.97;;
2522;SDS011;1272;53.332;9.860;2024-02-14T12:35:46;10.07;;;6.80;;
2522;SDS011;1272;53.332;9.860;2024-02-14T12:38:13;8.27;;;6.77;;
2522;SDS011;1272;53.332;9.860;2024-02-14T12:40:40;9.67;;;7.40;;
2522;SDS011;1272;53.332;9.860;2024-02-14T12:43:12;6.33;;;5.27;;
2522;SDS011;1272;53.332;9.860;2024-02-14T12:45:38;9.10;;;6.00;;
2522;SDS011;1272;53.332;9.860;2024-02-14T12:48:05;7.23;;;6.13;;
2522;SDS011;1272;53.332;9.860;2024-02-14T12:50:33;6.97;;;5.53;;
2522;SDS011;1272;53.332;9.860;2024-02-14T12:53:12;7.17;;;6.40;;
2522;SDS011;1272;53.332;9.860;2024-02-14T12:55:38;6.43;;;5.70;;
2522;SDS011;1272;53.332;9.860;2024-02-14T12:58:04;9.20;;;6.10;;
2522;SDS011;1272;53.332;9.860;2024-02-14T13:00:30;9.53;;;6.57;;
2522;SDS011;1272;53.332;9.860;2024-02-14T13:02:57;8.20;;;5.83;;
2522;SDS011;1272;53.332;9.860;2024-02-14T13:05:23;9.00;;;5.60;;
2522;SDS011;1272;53.332;9.860;2024-02-14T13:07:50;7.07;;;6.20;;
2522;SDS011;1272;53.332;9.860;2024-02-14T13:10:16;7.40;;;5.43;;
2522;SDS011;1272;53.332;9.860;2024-02-14T13:12:43;9.87;;;6.37;;
2522;SDS011;1272;53.332;9.860;2024-02-14T13:15:10;6.30;;;5.33;;
2522;SDS011;1272;53.332;9.860;2024-02-14T13:17:36;11.47;;;7.73;;
2522;SDS011;1272;53.332;9.860;2024-02-14T13:20:02;8.00;;;6.20;;
2522;SDS011;1272;53.332;9.860;2024-02-14T13:22:28;5.67;;;4.70;;
2522;SDS011;1272;53.332;9.860;2024-02-14T13:24:53;7.40;;;5.97;;
2522;SDS011;1272;53.332;9.860;2024-02-14T13:27:20;12.30;;;6.43;;
2522;SDS011;1272;53.332;9.860;2024-02-14T13:29:48;7.80;;;6.77;;
2522;SDS011;1272;53.332;9.860;2024-02-14T13:32:16;7.07;;;5.73;;
2522;SDS011;1272;53.332;9.860;2024-02-14T13:34:42;6.03;;;5.43;;
2522;SDS011;1272;53.332;9.860;2024-02-14T13:37:10;7.47;;;5.57;;
2522;SDS011;1272;53.332;9.860;2024-02-14T13:39:36;9.40;;;6.20;;
2522;SDS011;1272;53.332;9.860;2024-02-14T13:42:02;8.33;;;5.97;;
2522;SDS011;1272;53.332;9.860;2024-02-14T13:44:28;7.03;;;5.90;;
2522;SDS011;1272;53.332;9.860;2024-02-14T13:46:54;7.73;;;5.60;;
2522;SDS011;1272;53.332;9.860;2024-02-14T13:49:20;6.03;;;5.43;;
2522;SDS011;1272;53.332;9.860;2024-02-14T13:51:51;9.53;;;6.47;;
2522;SDS011;1272;53.332;9.860;2024-02-14T13:54:18;5.40;;;4.90;;
2522;SDS011;1272;53.332;9.860;2024-02-14T13:56:44;7.87;;;6.27;;
2522;SDS011;1272;53.332;9.860;2024-02-14T13:59:10;5.97;;;5.43;;
2522;SDS011;1272;53.332;9.860;2024-02-14T14:01:36;7.77;;;5.80;;
2522;SDS011;1272;53.332;9.860;2024-02-14T14:04:02;7.53;;;6.07;;
2522;SDS011;1272;53.332;9.860;2024-02-14T14:06:29;7.13;;;6.43;;
2522;SDS011;1272;53.332;9.860;2024-02-14T14:08:55;7.03;;;5.63;;
2522;SDS011;1272;53.332;9.860;2024-02-14T14:11:23;9.00;;;6.07;;
2522;SDS011;1272;53.332;9.860;2024-02-14T14:13:51;5.43;;;4.93;;
2522;SDS011;1272;53.332;9.860;2024-02-14T14:16:17;6.33;;;5.70;;
2522;SDS011;1272;53.332;9.860;2024-02-14T14:18:43;7.27;;;6.57;;
2522;SDS011;1272;53.332;9.860;2024-02-14T14:21:08;6.33;;;5.43;;
2522;SDS011;1272;53.332;9.860;2024-02-14T14:23:34;5.83;;;5.33;;
2522;SDS011;1272;53.332;9.860;2024-02-14T14:26:00;6.60;;;5.20;;
2522;SDS011;1272;53.332;9.860;2024-02-14T14:28:29;6.30;;;5.63;;
2522;SDS011;1272;53.332;9.860;2024-02-14T14:30:57;5.33;;;4.80;;
2522;SDS011;1272;53.332;9.860;2024-02-14T14:33:24;5.30;;;4.80;;
2522;SDS011;1272;53.332;9.860;2024-02-14T14:35:50;6.67;;;5.97;;
2522;SDS011;1272;53.332;9.860;2024-02-14T14:38:18;7.53;;;4.97;;
2522;SDS011;1272;53.332;9.860;2024-02-14T14:40:44;6.00;;;5.40;;
2522;SDS011;1272;53.332;9.860;2024-02-14T14:43:13;4.80;;;4.40;;
2522;SDS011;1272;53.332;9.860;2024-02-14T14:45:39;4.87;;;4.40;;
2522;SDS011;1272;53.332;9.860;2024-02-14T14:48:06;4.60;;;3.93;;
2522;SDS011;1272;53.332;9.860;2024-02-14T14:50:33;4.77;;;4.30;;
2522;SDS011;1272;53.332;9.860;2024-02-14T14:53:02;5.00;;;4.50;;
2522;SDS011;1272;53.332;9.860;2024-02-14T14:58:15;5.73;;;4.30;;
2522;SDS011;1272;53.332;9.860;2024-02-14T15:00:42;5.40;;;4.90;;
2522;SDS011;1272;53.332;9.860;2024-02-14T15:03:09;6.10;;;4.57;;
2522;SDS011;1272;53.332;9.860;2024-02-14T15:05:36;5.57;;;4.67;;
2522;SDS011;1272;53.332;9.860;2024-02-14T15:08:03;4.83;;;4.43;;
2522;SDS011;1272;53.332;9.860;2024-02-14T15:10:29;4.63;;;4.23;;
2522;SDS011;1272;53.332;9.860;2024-02-14T15:12:55;5.50;;;5.00;;
2522;SDS011;1272;53.332;9.860;2024-02-14T15:15:20;4.97;;;4.60;;
2522;SDS011;1272;53.332;9.860;2024-02-14T15:17:46;4.63;;;4.23;;